Time;durP1;ratioP1;P1;durP2;ratioP2;P2;SDS_P1;SDS_P2;PMS_P1;PMS_P2;Temp;Humidity;BMP_temperature;BMP_pressure;BME280_temperature;BME280_humidity;BME280_pressure;Samples;Min_cycle;Max_cycle;Signal;HPM_P1;HPM_P2
2023/01/06 00:01:18;;;;;;;;;5.00;3.00;;;;;4.11;79.93;98727.13;4910050;28;103978;-69
2023/01/06 00:03:53;;;;;;;;;5.25;3.00;;;;;4.08;79.05;98732.78;4888651;28;105104;-68
2023/01/06 00:06:26;;;;;;;;;4.00;3.00;;;;;4.13;79.09;98733.16;4911284;28;109846;-68
2023/01/06 00:08:54;;;;;;;;;3.00;3.00;;;;;4.09;78.05;98739.00;4920768;28;103084;-69
2023/01/06 00:11:22;;;;;;;;;5.00;3.00;;;;;4.02;78.96;98757.47;4880532;28;104022;-68
2023/01/06 00:13:49;;;;;;;;;4.00;3.00;;;;;3.99;78.05;98744.44;4912950;28;102296;-69
2023/01/06 00:16:19;;;;;;;;;3.50;2.00;;;;;4.04;78.44;98747.47;4908217;28;102515;-67
2023/01/06 00:18:46;;;;;;;;;3.25;1.75;;;;;4.01;78.35;98758.47;4918702;28;102093;-69
2023/01/06 00:21:14;;;;;;;;;3.25;3.00;;;;;4.03;78.80;98761.84;4930523;28;104114;-69
2023/01/06 00:23:41;;;;;;;;;3.00;2.75;;;;;4.04;78.63;98763.53;4899047;28;102122;-68
2023/01/06 00:26:09;;;;;;;;;5.00;3.00;;;;;4.04;78.96;98758.19;4912403;28;102125;-69
2023/01/06 00:28:38;;;;;;;;;2.00;2.00;;;;;4.14;78.74;98775.00;4923017;28;102089;-69
2023/01/06 00:31:10;;;;;;;;;5.25;4.25;;;;;4.04;78.43;98782.25;4893342;28;104178;-71
2023/01/06 00:33:37;;;;;;;;;3.00;2.50;;;;;4.10;78.77;98778.94;4904547;28;102475;-69
2023/01/06 00:36:07;;;;;;;;;2.25;2.25;;;;;4.11;79.01;98785.97;4923975;28;102025;-68
2023/01/06 00:38:38;;;;;;;;;3.00;2.50;;;;;4.18;78.78;98784.38;4908578;28;102226;-69
2023/01/06 00:43:57;;;;;;;;;8.00;7.50;;;;;4.04;78.47;98795.63;4921632;28;102490;-69
2023/01/06 00:46:27;;;;;;;;;8.50;6.75;;;;;3.94;78.05;98805.59;4925678;28;102414;-69
2023/01/06 00:48:56;;;;;;;;;4.50;3.00;;;;;3.99;78.37;98804.13;4911247;28;102249;-68
2023/01/06 00:51:37;;;;;;;;;6.00;5.00;;;;;3.83;77.99;98782.56;4889967;28;108744;-68
2023/01/06 00:54:05;;;;;;;;;6.50;6.25;;;;;3.89;77.84;98810.53;4900056;28;102478;-68
2023/01/06 00:56:37;;;;;;;;;5.00;3.00;;;;;3.97;77.93;98816.81;4914032;28;102202;-68
2023/01/06 00:59:06;;;;;;;;;6.00;5.50;;;;;3.88;77.54;98832.94;4895784;28;102726;-68
2023/01/06 01:01:34;;;;;;;;;2.25;2.25;;;;;3.82;78.37;98828.22;4912951;28;108893;-68
2023/01/06 01:04:02;;;;;;;;;5.00;3.00;;;;;3.77;77.70;98836.69;4896130;28;102222;-68
2023/01/06 01:06:31;;;;;;;;;2.00;2.00;;;;;3.69;77.70;98830.44;4876238;28;104271;-67
2023/01/06 01:08:59;;;;;;;;;3.00;3.00;;;;;3.66;78.37;98838.72;4894295;28;102405;-69
2023/01/06 01:14:14;;;;;;;;;1.75;1.75;;;;;3.58;78.08;98847.53;4900808;28;102164;-68
2023/01/06 01:16:41;;;;;;;;;2.50;2.25;;;;;3.57;78.04;98849.34;4911685;28;102250;-69
2023/01/06 01:19:10;;;;;;;;;6.75;3.00;;;;;3.50;78.28;98834.91;4918869;28;102419;-69
2023/01/06 01:21:37;;;;;;;;;2.25;2.00;;;;;3.25;78.37;98819.59;4910380;28;104029;-69
2023/01/06 01:24:05;;;;;;;;;3.00;2.00;;;;;3.37;78.17;98847.81;4931994;28;102369;-68
2023/01/06 01:26:32;;;;;;;;;1.25;1.25;;;;;3.46;79.11;98846.91;4917897;28;102066;-68
2023/01/06 01:28:59;;;;;;;;;3.00;1.75;;;;;3.39;78.54;98855.66;4908421;28;102172;-69
2023/01/06 01:31:26;;;;;;;;;3.50;2.50;;;;;3.41;78.10;98851.00;4888047;28;103817;-69
2023/01/06 01:33:53;;;;;;;;;1.75;1.25;;;;;3.42;79.11;98861.53;4891513;28;102335;-69
2023/01/06 01:36:20;;;;;;;;;2.50;2.00;;;;;3.31;77.84;98861.75;4900010;28;102017;-67
2023/01/06 01:38:47;;;;;;;;;1.00;1.00;;;;;3.26;79.15;98865.84;4930827;28;102572;-69
2023/01/06 01:41:17;;;;;;;;;2.25;2.00;;;;;3.28;78.10;98856.72;4888639;28;103857;-69
2023/01/06 01:43:45;;;;;;;;;2.00;2.00;;;;;3.28;78.39;98862.06;4920282;28;102382;-69
2023/01/06 01:46:20;;;;;;;;;2.25;2.25;;;;;3.21;79.67;98863.63;4842470;28;103028;-69
2023/01/06 01:48:48;;;;;;;;;1.50;1.50;;;;;3.25;78.65;98861.50;4886826;28;102416;-68
2023/01/06 01:51:19;;;;;;;;;1.00;1.00;;;;;3.23;79.03;98866.16;4902953;28;104109;-69
2023/01/06 01:53:52;;;;;;;;;2.00;1.00;;;;;3.25;80.10;98872.19;4923066;28;104019;-69
2023/01/06 01:56:24;;;;;;;;;2.00;2.00;;;;;3.17;79.69;98870.25;4908284;28;102038;-69
2023/01/06 01:58:58;;;;;;;;;3.50;2.00;;;;;3.14;80.77;98870.56;4899843;28;102124;-69
2023/01/06 02:01:25;;;;;;;;;2.00;2.00;;;;;3.15;80.29;98873.06;4883789;28;103998;-69
2023/01/06 02:03:53;;;;;;;;;3.00;3.00;;;;;3.12;80.66;98880.53;4905996;28;102427;-69
2023/01/06 02:06:23;;;;;;;;;2.00;1.75;;;;;3.12;80.27;98877.88;4889441;28;102725;-69
2023/01/06 02:09:06;;;;;;;;;2.50;2.25;;;;;3.17;80.65;98894.31;4873832;28;102693;-68
2023/01/06 02:11:51;;;;;;;;;2.50;2.00;;;;;3.21;80.70;98890.34;4905143;28;107695;-69
2023/01/06 02:14:39;;;;;;;;;2.75;2.75;;;;;3.22;80.10;98900.06;4896935;28;102742;-69
2023/01/06 02:17:46;;;;;;;;;4.50;4.50;;;;;3.13;80.38;98895.59;4847595;28;102321;-70
2023/01/06 02:20:50;;;;;;;;;2.00;1.00;;;;;3.12;80.66;98900.09;4890755;28;102126;-68
2023/01/06 02:23:37;;;;;;;;;3.00;2.25;;;;;3.13;80.78;98901.78;4875928;28;108839;-69
2023/01/06 02:26:38;;;;;;;;;2.25;2.00;;;;;3.14;80.77;98894.59;4904778;28;102086;-68
2023/01/06 02:29:14;;;;;;;;;2.00;1.75;;;;;3.15;81.10;98898.97;4905140;28;102188;-69
2023/01/06 02:32:02;;;;;;;;;2.00;2.00;;;;;3.08;81.59;98906.72;4911674;28;102527;-67
2023/01/06 02:34:54;;;;;;;;;2.00;2.00;;;;;3.11;82.20;98909.09;4917063;28;104008;-69
2023/01/06 02:37:35;;;;;;;;;2.75;2.00;;;;;2.97;82.26;98900.72;4910782;28;102477;-68
2023/01/06 02:40:27;;;;;;;;;2.00;2.00;;;;;2.93;82.14;98910.00;4918034;28;102040;-69
2023/01/06 02:43:20;;;;;;;;;2.50;2.00;;;;;3.00;81.97;98901.25;4932595;28;102437;-69
2023/01/06 02:46:18;;;;;;;;;5.00;2.75;;;;;3.02;83.14;98914.44;4933203;28;108767;-69
2023/01/06 02:49:06;;;;;;;;;5.00;3.50;;;;;2.97;82.62;98911.41;4931586;28;102450;-69
2023/01/06 02:51:54;;;;;;;;;3.00;3.00;;;;;2.94;83.32;98914.34;4915969;28;102192;-69
2023/01/06 02:54:51;;;;;;;;;5.75;4.50;;;;;2.80;82.71;98909.47;4901447;28;102079;-68
2023/01/06 02:57:33;;;;;;;;;5.00;3.50;;;;;2.97;82.78;98924.75;4916868;28;109012;-69
2023/01/06 03:00:22;;;;;;;;;2.50;2.00;;;;;2.91;83.06;98922.66;4919025;28;103418;-69
2023/01/06 03:02:57;;;;;;;;;6.25;5.50;;;;;2.88;83.07;98926.44;4901781;28;102232;-68
2023/01/06 03:05:25;;;;;;;;;5.00;4.50;;;;;2.88;83.32;98922.97;4911965;28;102237;-68
2023/01/06 03:07:54;;;;;;;;;6.50;5.75;;;;;2.83;84.41;98938.56;4929415;28;104180;-69
2023/01/06 03:10:24;;;;;;;;;4.00;3.50;;;;;2.83;83.85;98930.56;4859693;28;102526;-68
2023/01/06 03:13:08;;;;;;;;;4.50;4.50;;;;;2.84;84.07;98929.56;4898109;28;102918;-68
2023/01/06 03:15:35;;;;;;;;;4.50;3.00;;;;;2.91;84.09;98928.00;4911611;28;102045;-69
2023/01/06 03:18:02;;;;;;;;;7.00;6.75;;;;;2.84;83.65;98929.56;4909743;28;108765;-68
2023/01/06 03:20:30;;;;;;;;;6.00;5.00;;;;;2.88;83.67;98925.63;4901226;28;103485;-69
2023/01/06 03:22:57;;;;;;;;;7.00;6.00;;;;;2.86;84.12;98923.09;4882426;28;102484;-70
2023/01/06 03:25:24;;;;;;;;;4.50;4.50;;;;;2.85;83.55;98913.38;4891728;28;102460;-68
2023/01/06 03:27:51;;;;;;;;;6.50;6.50;;;;;2.72;83.69;98920.03;4891369;28;104707;-68
2023/01/06 03:30:18;;;;;;;;;7.00;6.00;;;;;2.76;83.41;98924.94;4894002;28;102287;-69
2023/01/06 03:33:00;;;;;;;;;5.75;4.75;;;;;2.79;84.39;98924.66;4883065;28;102567;-68
2023/01/06 03:35:51;;;;;;;;;5.00;4.50;;;;;2.82;84.46;98923.53;4896303;28;102558;-67
2023/01/06 03:38:34;;;;;;;;;5.00;5.00;;;;;2.78;83.78;98927.47;4894507;28;108596;-68
2023/01/06 03:43:10;;;;;;;;;6.50;6.00;;;;;2.81;83.75;98927.19;4903649;28;104168;-68
2023/01/06 03:44:36;;;;;;;;;3.00;2.50;;;;;2.86;83.42;98932.94;4894007;28;102080;-69
2023/01/06 03:47:14;;;;;;;;;3.50;3.50;;;;;2.74;83.93;98923.41;4897452;28;101996;-69
2023/01/06 03:49:55;;;;;;;;;3.00;2.50;;;;;2.82;84.24;98927.03;4870438;28;107920;-69
2023/01/06 03:52:29;;;;;;;;;6.00;5.00;;;;;2.79;84.05;98934.50;4884838;28;102313;-68
2023/01/06 03:55:04;;;;;;;;;6.00;4.50;;;;;2.81;84.47;98933.38;4885216;28;102327;-68
2023/01/06 03:57:37;;;;;;;;;1.25;1.25;;;;;2.88;83.39;98920.28;4897031;28;102538;-69
2023/01/06 04:00:09;;;;;;;;;3.50;2.25;;;;;2.88;84.45;98938.97;4894386;28;109488;-68
2023/01/06 04:02:39;;;;;;;;;3.00;2.25;;;;;2.89;83.94;98930.81;4886461;28;105255;-72
2023/01/06 04:05:19;;;;;;;;;6.75;5.25;;;;;2.81;83.96;98941.38;4892036;28;102579;-70
2023/01/06 04:07:46;;;;;;;;;6.75;5.50;;;;;2.78;84.35;98927.47;4888319;28;102029;-69
2023/01/06 04:10:16;;;;;;;;;2.50;2.50;;;;;2.87;84.11;98929.28;4892459;28;103061;-69
2023/01/06 04:12:44;;;;;;;;;6.50;5.00;;;;;2.77;84.72;98939.97;4888367;28;102361;-68
2023/01/06 04:15:15;;;;;;;;;4.75;3.00;;;;;2.87;84.21;98934.63;4891788;28;102169;-69
2023/01/06 04:17:43;;;;;;;;;5.00;3.00;;;;;2.89;84.53;98935.31;4879754;28;102321;-69
2023/01/06 04:20:14;;;;;;;;;5.00;5.00;;;;;2.76;83.86;98940.13;4901543;28;104137;-69
2023/01/06 04:22:41;;;;;;;;;6.25;5.00;;;;;2.84;84.34;98937.56;4903312;28;102174;-70
2023/01/06 04:25:09;;;;;;;;;8.75;5.00;;;;;2.81;84.38;98936.03;4913228;28;103107;-68
2023/01/06 04:27:36;;;;;;;;;7.25;6.25;;;;;2.76;85.21;98934.78;4935662;28;101991;-69
2023/01/06 04:30:04;;;;;;;;;6.00;3.00;;;;;2.51;84.74;98904.22;4929899;28;108378;-68
2023/01/06 04:32:31;;;;;;;;;6.00;3.50;;;;;2.72;85.34;98936.91;4931046;28;102198;-68
2023/01/06 04:34:58;;;;;;;;;5.25;5.25;;;;;2.68;85.66;98936.34;4929003;28;102015;-67
2023/01/06 04:37:25;;;;;;;;;3.00;3.00;;;;;2.72;84.65;98944.06;4874982;28;102574;-68
2023/01/06 04:39:52;;;;;;;;;3.50;2.00;;;;;2.78;84.67;98946.16;4886550;28;104152;-68
2023/01/06 04:42:19;;;;;;;;;6.00;5.00;;;;;2.73;84.55;98951.94;4907526;28;102195;-69
2023/01/06 04:44:46;;;;;;;;;8.50;6.00;;;;;2.73;85.50;98959.09;4911468;28;102548;-69
2023/01/06 04:47:14;;;;;;;;;5.00;5.00;;;;;2.76;85.04;98956.13;4900339;28;102186;-68
2023/01/06 04:49:41;;;;;;;;;6.00;3.50;;;;;2.83;84.47;98958.09;4898027;28;104021;-68
2023/01/06 04:52:08;;;;;;;;;1.50;1.50;;;;;2.93;83.85;98958.06;4913857;28;107144;-68
2023/01/06 04:54:37;;;;;;;;;2.00;1.50;;;;;2.96;83.71;98952.44;4924584;28;104118;-69
2023/01/06 04:57:04;;;;;;;;;0.25;0.25;;;;;3.03;82.89;98969.56;4896479;28;102047;-69
2023/01/06 04:59:31;;;;;;;;;1.00;0.75;;;;;3.05;82.92;98963.13;4915501;28;104211;-69
2023/01/06 05:01:58;;;;;;;;;2.00;0.50;;;;;3.07;83.21;98962.94;4907646;28;102091;-68
2023/01/06 05:04:25;;;;;;;;;1.00;1.00;;;;;3.03;83.41;98962.41;4905666;28;102347;-68
2023/01/06 05:06:55;;;;;;;;;2.00;2.00;;;;;3.00;82.95;98965.38;4932546;28;102088;-68
2023/01/06 05:09:22;;;;;;;;;2.75;2.25;;;;;3.03;83.32;98969.56;4904965;28;103921;-68
2023/01/06 05:11:49;;;;;;;;;2.00;2.00;;;;;3.01;83.21;98966.22;4931788;28;102448;-68
2023/01/06 05:14:16;;;;;;;;;2.75;2.00;;;;;3.02;83.03;98974.06;4895462;28;102172;-67
2023/01/06 05:16:47;;;;;;;;;2.00;1.75;;;;;3.05;82.87;98972.94;4924903;28;103889;-69
2023/01/06 05:19:15;;;;;;;;;1.00;0.50;;;;;3.05;82.65;98984.47;4924825;28;104112;-68
2023/01/06 05:21:43;;;;;;;;;2.00;2.00;;;;;3.05;82.70;98983.63;4914819;28;101984;-68
2023/01/06 05:24:10;;;;;;;;;2.00;1.50;;;;;3.05;82.29;98981.81;4877466;28;102381;-68
2023/01/06 05:26:37;;;;;;;;;2.00;1.00;;;;;3.05;82.88;98970.28;4907230;28;102195;-68
2023/01/06 05:29:04;;;;;;;;;2.50;2.00;;;;;3.06;82.77;98974.66;4905731;28;104941;-67
2023/01/06 05:31:31;;;;;;;;;1.00;1.00;;;;;3.04;82.54;98968.59;4927755;28;102490;-68
2023/01/06 05:33:58;;;;;;;;;1.75;1.75;;;;;2.98;83.38;98972.66;4929924;28;102255;-67
2023/01/06 05:36:25;;;;;;;;;2.00;1.00;;;;;2.95;82.50;98980.97;4930601;28;101975;-68
2023/01/06 05:38:53;;;;;;;;;2.00;1.00;;;;;2.94;82.52;98981.97;4908759;28;105262;-68
2023/01/06 05:41:20;;;;;;;;;0.00;0.00;;;;;2.90;83.40;98985.91;4919875;28;102365;-68
2023/01/06 05:43:47;;;;;;;;;1.00;1.00;;;;;2.88;83.36;98987.88;4884548;28;102281;-68
2023/01/06 05:46:14;;;;;;;;;1.50;1.00;;;;;2.87;83.47;98986.19;4923455;28;103145;-67
2023/01/06 05:48:41;;;;;;;;;1.00;1.00;;;;;2.89;83.27;98994.06;4927757;28;104076;-67
2023/01/06 05:51:11;;;;;;;;;1.75;1.00;;;;;2.90;83.57;99006.44;4904778;28;102656;-69
2023/01/06 05:53:41;;;;;;;;;3.00;3.00;;;;;2.88;83.53;99003.88;4908646;28;102382;-69
2023/01/06 05:56:10;;;;;;;;;3.00;2.25;;;;;2.85;83.05;99003.34;4906789;28;102553;-69
2023/01/06 05:58:41;;;;;;;;;1.75;1.75;;;;;2.86;83.05;98995.19;4892076;28;103526;-70
2023/01/06 06:01:18;;;;;;;;;2.50;2.00;;;;;2.83;83.27;99000.84;4905590;28;102253;-69
2023/01/06 06:03:45;;;;;;;;;3.00;3.00;;;;;2.84;83.64;99007.00;4910525;28;102209;-68
2023/01/06 06:06:13;;;;;;;;;3.00;2.25;;;;;2.90;83.46;99009.94;4883492;28;103619;-68
2023/01/06 06:08:40;;;;;;;;;2.00;2.00;;;;;2.91;82.97;99005.44;4887591;28;104033;-69
2023/01/06 06:11:10;;;;;;;;;2.25;2.25;;;;;2.93;82.67;99012.31;4932197;28;102900;-69
2023/01/06 06:13:37;;;;;;;;;2.00;2.00;;;;;2.94;82.69;98997.97;4893216;28;102116;-68
2023/01/06 06:16:14;;;;;;;;;4.50;2.25;;;;;2.97;83.20;98999.53;4908632;28;102391;-68
2023/01/06 06:18:42;;;;;;;;;3.00;2.00;;;;;2.91;82.84;98997.44;4912059;28;108936;-69
2023/01/06 06:21:14;;;;;;;;;5.00;5.00;;;;;2.89;83.12;99004.72;4896382;28;102403;-68
2023/01/06 06:23:42;;;;;;;;;2.00;1.75;;;;;2.91;83.52;99002.78;4913806;28;102225;-68
2023/01/06 06:26:11;;;;;;;;;3.50;2.25;;;;;2.88;83.07;98997.72;4933803;28;102037;-70
2023/01/06 06:28:39;;;;;;;;;2.00;1.00;;;;;2.86;82.92;98986.34;4931376;28;103975;-70
2023/01/06 06:31:16;;;;;;;;;0.75;0.75;;;;;2.82;82.43;98992.94;4912132;28;102262;-68
2023/01/06 06:33:43;;;;;;;;;1.00;1.00;;;;;2.80;83.63;99000.25;4931618;28;102189;-69
2023/01/06 06:36:14;;;;;;;;;1.00;1.00;;;;;2.74;82.74;98993.69;4926910;28;102252;-69
2023/01/06 06:38:46;;;;;;;;;1.50;1.00;;;;;2.69;83.12;99002.09;4932602;28;104123;-69
2023/01/06 06:41:13;;;;;;;;;2.00;2.00;;;;;2.62;83.25;99003.63;4915366;28;102197;-69
2023/01/06 06:43:41;;;;;;;;;0.50;0.00;;;;;2.33;84.17;98965.44;4933200;28;102151;-68
2023/01/06 06:46:08;;;;;;;;;1.00;0.00;;;;;2.48;84.09;99009.41;4917588;28;105606;-68
2023/01/06 06:48:36;;;;;;;;;1.00;0.00;;;;;2.45;84.57;99009.69;4888290;28;108541;-69
2023/01/06 06:51:06;;;;;;;;;4.00;1.75;;;;;2.38;84.25;98997.91;4914768;28;104118;-69
2023/01/06 06:53:35;;;;;;;;;1.00;1.00;;;;;2.36;84.37;99015.00;4903865;28;104016;-69
2023/01/06 06:56:06;;;;;;;;;3.00;2.00;;;;;2.22;85.20;99014.44;4908664;28;102477;-68
2023/01/06 06:58:34;;;;;;;;;5.00;2.50;;;;;2.25;85.09;99024.81;4913044;28;108955;-68
2023/01/06 07:01:09;;;;;;;;;1.50;1.50;;;;;2.07;85.31;99005.13;4902791;28;102676;-68
2023/01/06 07:03:37;;;;;;;;;1.00;0.25;;;;;2.18;85.50;99037.03;4911963;28;102103;-67
2023/01/06 07:06:07;;;;;;;;;1.00;1.00;;;;;2.19;86.02;99048.56;4931500;28;102277;-68
2023/01/06 07:08:34;;;;;;;;;2.00;1.00;;;;;2.17;86.01;99035.34;4909052;28;108162;-66
2023/01/06 07:11:02;;;;;;;;;2.00;1.75;;;;;2.17;86.03;99034.50;4928509;28;102354;-69
2023/01/06 07:13:28;;;;;;;;;2.00;1.25;;;;;2.18;86.03;99034.38;4910543;28;102310;-69
2023/01/06 07:15:55;;;;;;;;;1.00;1.00;;;;;2.21;86.33;99038.56;4935142;28;102075;-68
2023/01/06 07:18:22;;;;;;;;;1.25;1.25;;;;;2.22;86.58;99037.59;4923563;28;104011;-68
2023/01/06 07:20:52;;;;;;;;;2.25;1.75;;;;;2.19;86.14;99033.41;4910159;28;102438;-69
2023/01/06 07:23:21;;;;;;;;;3.50;2.50;;;;;2.22;86.17;99040.28;4895547;28;102453;-69
2023/01/06 07:25:56;;;;;;;;;2.00;2.00;;;;;2.21;86.26;99033.25;4892536;28;102450;-68
2023/01/06 07:28:24;;;;;;;;;2.00;2.00;;;;;2.23;86.46;99044.63;4882898;28;104002;-68
2023/01/06 07:30:51;;;;;;;;;1.00;1.00;;;;;2.08;85.90;99017.50;4880805;28;102487;-68
2023/01/06 07:33:20;;;;;;;;;2.00;2.00;;;;;2.28;85.78;99061.06;4893605;28;101982;-68
2023/01/06 07:35:51;;;;;;;;;2.00;1.00;;;;;2.32;85.50;99059.81;4863587;28;102004;-68
2023/01/06 07:38:19;;;;;;;;;2.25;2.00;;;;;2.33;85.54;99066.84;4879882;28;103999;-69
2023/01/06 07:40:47;;;;;;;;;2.00;2.00;;;;;2.37;85.65;99078.94;4852335;28;102206;-69
2023/01/06 07:43:14;;;;;;;;;2.25;2.00;;;;;2.44;85.54;99079.19;4875508;28;103802;-68
2023/01/06 07:45:41;;;;;;;;;3.00;2.25;;;;;2.47;85.76;99071.78;4902178;28;101998;-69
2023/01/06 07:48:08;;;;;;;;;6.25;3.00;;;;;2.51;85.54;99075.84;4864464;28;104036;-68
2023/01/06 07:50:35;;;;;;;;;4.50;3.00;;;;;2.57;85.59;99080.63;4880458;28;102631;-69
2023/01/06 07:53:02;;;;;;;;;5.25;4.00;;;;;2.49;84.34;99060.94;4885796;28;102227;-68
2023/01/06 07:55:30;;;;;;;;;5.00;3.00;;;;;2.64;84.43;99071.09;4887803;28;103004;-69
2023/01/06 07:58:00;;;;;;;;;2.00;2.00;;;;;2.70;85.25;99085.72;4887266;28;104032;-68
2023/01/06 08:00:27;;;;;;;;;3.25;1.25;;;;;2.74;84.65;99086.28;4869724;28;102474;-68
2023/01/06 08:02:54;;;;;;;;;5.00;5.00;;;;;2.77;84.98;99086.84;4886617;28;102577;-68
2023/01/06 08:05:21;;;;;;;;;3.00;3.00;;;;;2.81;84.38;99092.72;4893174;28;104506;-68
2023/01/06 08:07:48;;;;;;;;;5.25;2.50;;;;;2.83;84.97;99082.75;4887756;28;103812;-69
2023/01/06 08:10:15;;;;;;;;;8.50;7.00;;;;;2.88;84.95;99088.53;4859551;28;102400;-69
2023/01/06 08:12:42;;;;;;;;;9.75;6.50;;;;;2.92;83.58;99095.28;4860838;28;102311;-69
2023/01/06 08:15:10;;;;;;;;;6.25;6.00;;;;;2.94;83.75;99094.13;4887631;28;102377;-70
2023/01/06 08:17:37;;;;;;;;;8.75;6.00;;;;;2.98;83.40;99092.88;4872109;28;104017;-68
2023/01/06 08:20:04;;;;;;;;;6.00;4.50;;;;;3.03;83.41;99093.28;4894981;28;102529;-69
2023/01/06 08:22:32;;;;;;;;;5.00;5.00;;;;;3.12;83.38;99091.59;4893802;28;102394;-68
2023/01/06 08:25:00;;;;;;;;;5.50;5.50;;;;;2.98;83.33;99051.97;4890541;28;102138;-68
2023/01/06 08:27:28;;;;;;;;;1.25;1.25;;;;;3.09;82.69;99060.69;4893929;28;103035;-68
2023/01/06 08:29:57;;;;;;;;;5.00;3.00;;;;;3.29;82.33;99082.03;4899646;28;102452;-69
2023/01/06 08:32:27;;;;;;;;;1.75;1.75;;;;;3.31;81.01;99086.22;4908040;28;102252;-68
2023/01/06 08:34:56;;;;;;;;;2.50;2.00;;;;;3.38;81.24;99090.00;4903903;28;103224;-68
2023/01/06 08:37:26;;;;;;;;;3.00;1.00;;;;;3.44;81.20;99086.75;4876884;28;103463;-68
2023/01/06 08:39:57;;;;;;;;;2.00;1.00;;;;;3.48;80.93;99093.50;4893103;28;102407;-68
2023/01/06 08:42:27;;;;;;;;;2.00;1.00;;;;;3.57;81.00;99092.63;4900280;28;102423;-69
2023/01/06 08:44:55;;;;;;;;;1.75;1.00;;;;;3.66;80.51;99096.28;4894814;28;102456;-68
2023/01/06 08:47:27;;;;;;;;;6.75;6.25;;;;;3.75;80.27;99094.56;4904124;28;103167;-68
2023/01/06 08:49:54;;;;;;;;;6.75;5.50;;;;;3.83;79.77;99091.97;4894088;28;102815;-69
2023/01/06 08:52:22;;;;;;;;;6.00;5.00;;;;;3.91;79.03;99084.09;4876172;28;102649;-68
2023/01/06 08:54:50;;;;;;;;;7.00;3.00;;;;;4.05;80.09;99097.00;4891149;28;102440;-68
2023/01/06 08:57:18;;;;;;;;;2.00;1.75;;;;;4.16;78.79;99088.75;4908784;28;103144;-69
2023/01/06 08:59:46;;;;;;;;;5.75;2.00;;;;;4.21;78.14;99091.81;4909580;28;104144;-69
2023/01/06 09:02:13;;;;;;;;;2.00;2.00;;;;;4.25;78.10;99082.50;4895495;28;102314;-69
2023/01/06 09:04:41;;;;;;;;;2.00;1.50;;;;;4.32;77.27;99082.75;4909658;28;102645;-69
2023/01/06 09:07:10;;;;;;;;;5.00;3.50;;;;;4.32;76.56;99086.25;4910479;28;104091;-69
2023/01/06 09:09:36;;;;;;;;;3.25;2.25;;;;;4.29;76.92;99078.53;4911781;28;102272;-68
2023/01/06 09:12:04;;;;;;;;;3.00;2.00;;;;;4.32;75.93;99082.75;4914574;28;102138;-69
2023/01/06 09:14:33;;;;;;;;;6.00;3.75;;;;;4.26;76.35;99084.19;4913512;28;102461;-69
2023/01/06 09:17:00;;;;;;;;;4.50;2.00;;;;;4.26;76.68;99078.00;4914264;28;104231;-69
2023/01/06 09:19:27;;;;;;;;;1.25;1.25;;;;;4.01;76.26;99050.94;4912383;28;102172;-69
2023/01/06 09:21:54;;;;;;;;;2.50;2.00;;;;;4.24;76.86;99072.78;4908119;28;101985;-68
2023/01/06 09:24:21;;;;;;;;;3.00;2.50;;;;;4.19;76.19;99067.03;4883549;28;102574;-68
2023/01/06 09:26:48;;;;;;;;;3.00;3.00;;;;;4.20;75.99;99074.06;4900557;28;103681;-67
2023/01/06 09:29:15;;;;;;;;;5.50;3.00;;;;;4.19;76.63;99064.34;4909815;28;102386;-69
2023/01/06 09:31:43;;;;;;;;;4.50;3.00;;;;;4.17;76.34;99066.34;4911880;28;102390;-69
2023/01/06 09:34:11;;;;;;;;;2.00;2.00;;;;;4.28;75.87;99060.78;4911458;28;102460;-71
2023/01/06 09:36:38;;;;;;;;;3.00;3.00;;;;;4.33;75.10;99058.50;4907977;28;104028;-69
2023/01/06 09:39:05;;;;;;;;;3.00;2.00;;;;;4.33;75.35;99063.84;4904239;28;102562;-69
2023/01/06 09:41:39;;;;;;;;;1.00;1.00;;;;;4.38;75.71;99061.56;4900600;28;102463;-68
2023/01/06 09:44:20;;;;;;;;;2.00;1.75;;;;;4.43;75.17;99056.63;4910287;28;102481;-69
2023/01/06 09:46:51;;;;;;;;;1.00;0.00;;;;;4.54;76.22;99049.34;4903938;28;108760;-68
2023/01/06 09:49:24;;;;;;;;;0.00;0.00;;;;;4.57;75.37;99039.19;4890278;28;102461;-68
2023/01/06 09:51:56;;;;;;;;;0.50;0.00;;;;;4.66;75.68;99040.94;4913895;28;102146;-68
2023/01/06 09:54:34;;;;;;;;;1.00;1.00;;;;;4.66;74.72;99034.75;4911930;28;102465;-67
2023/01/06 09:57:09;;;;;;;;;3.00;3.00;;;;;4.75;75.07;99036.50;4898576;28;104234;-68
2023/01/06 09:59:51;;;;;;;;;1.00;1.00;;;;;4.80;73.65;99024.34;4885384;28;104253;-67
2023/01/06 10:02:44;;;;;;;;;1.00;1.00;;;;;4.81;72.39;99022.50;4902032;28;102123;-69
2023/01/06 10:06:06;;;;;;;;;1.25;1.00;;;;;4.87;73.24;99024.53;4906886;28;102331;-69
2023/01/06 10:09:10;;;;;;;;;2.75;2.25;;;;;4.88;71.86;99032.44;4837472;28;108458;-68
2023/01/06 10:11:58;;;;;;;;;1.00;1.00;;;;;4.86;72.88;99030.91;4910593;28;102422;-68
2023/01/06 10:14:38;;;;;;;;;1.50;1.25;;;;;4.78;71.82;99025.47;4885237;28;102372;-69
2023/01/06 10:17:46;;;;;;;;;2.00;1.00;;;;;4.74;72.00;99021.41;4921666;28;102594;-69
2023/01/06 10:20:35;;;;;;;;;2.00;1.00;;;;;4.81;72.58;99009.09;4881240;28;108570;-69
2023/01/06 10:23:27;;;;;;;;;4.75;4.00;;;;;4.71;72.93;99003.00;4903599;28;102807;-68
2023/01/06 10:26:00;;;;;;;;;2.75;2.00;;;;;4.74;72.88;99000.00;4884594;28;102453;-68
2023/01/06 10:28:34;;;;;;;;;3.25;1.75;;;;;4.78;73.08;98994.16;4861900;28;102324;-69
2023/01/06 10:31:14;;;;;;;;;3.50;3.00;;;;;4.81;74.07;98998.38;4896944;28;104566;-68
2023/01/06 10:33:47;;;;;;;;;5.25;3.50;;;;;4.72;73.64;98999.31;4904155;28;102812;-68
2023/01/06 10:36:17;;;;;;;;;6.75;5.50;;;;;4.75;73.97;98990.97;4896474;28;102349;-69
2023/01/06 10:38:50;;;;;;;;;6.50;4.00;;;;;4.76;74.01;98973.91;4903701;28;104215;-69
2023/01/06 10:41:42;;;;;;;;;7.00;3.00;;;;;4.78;73.64;98971.91;4906031;28;104172;-70
2023/01/06 10:44:10;;;;;;;;;5.00;3.00;;;;;4.88;74.09;98972.66;4907321;28;102178;-69
2023/01/06 10:46:40;;;;;;;;;2.25;1.50;;;;;4.90;73.47;98965.31;4903352;28;104490;-68
2023/01/06 10:49:14;;;;;;;;;3.50;3.50;;;;;4.94;73.64;98964.00;4878458;28;102423;-69
2023/01/06 10:51:47;;;;;;;;;5.00;2.00;;;;;4.97;73.90;98954.78;4908486;28;107550;-67
2023/01/06 10:54:21;;;;;;;;;1.50;1.00;;;;;5.00;72.91;98958.00;4903880;28;102345;-69
2023/01/06 10:56:54;;;;;;;;;3.00;2.00;;;;;4.98;72.22;98951.97;4897795;28;104106;-68
2023/01/06 10:59:22;;;;;;;;;2.00;2.00;;;;;5.04;72.64;98951.34;4897240;28;102139;-68
2023/01/06 11:01:55;;;;;;;;;1.00;1.00;;;;;5.18;71.86;98948.06;4908849;28;103954;-69
2023/01/06 11:04:25;;;;;;;;;0.00;0.00;;;;;5.26;71.75;98937.41;4913583;28;102155;-68
2023/01/06 11:07:00;;;;;;;;;2.50;1.50;;;;;5.35;71.24;98943.66;4908734;28;104271;-69
2023/01/06 11:09:40;;;;;;;;;1.75;1.00;;;;;5.35;70.76;98936.44;4899290;28;102562;-68
2023/01/06 11:12:18;;;;;;;;;1.00;0.00;;;;;5.45;71.10;98938.19;4896682;28;109429;-69
2023/01/06 11:14:57;;;;;;;;;1.00;0.75;;;;;5.30;71.19;98906.59;4898666;28;102025;-69
2023/01/06 11:17:25;;;;;;;;;1.00;1.00;;;;;5.53;71.27;98933.69;4895386;28;102316;-69
2023/01/06 11:20:25;;;;;;;;;1.00;1.00;;;;;5.56;71.10;98935.19;4899040;28;102314;-69
2023/01/06 11:22:52;;;;;;;;;1.00;1.00;;;;;5.60;70.69;98942.75;4905885;28;108564;-68
2023/01/06 11:25:19;;;;;;;;;1.00;1.00;;;;;5.54;70.33;98951.44;4910044;28;102433;-68
2023/01/06 11:28:05;;;;;;;;;1.25;1.00;;;;;5.46;70.93;98954.09;4910608;28;102261;-67
2023/01/06 11:30:41;;;;;;;;;6.00;5.00;;;;;5.37;72.17;98955.88;4892710;28;102486;-69
2023/01/06 11:33:23;;;;;;;;;3.00;2.50;;;;;5.42;72.45;98954.56;4908142;28;103989;-68
2023/01/06 11:35:52;;;;;;;;;6.00;3.00;;;;;5.49;72.35;98950.25;4899884;28;102348;-69
2023/01/06 11:38:21;;;;;;;;;3.75;2.75;;;;;5.45;71.98;98940.84;4908817;28;102398;-68
2023/01/06 11:40:50;;;;;;;;;8.00;7.00;;;;;5.23;70.90;98921.63;4872505;28;103953;-69
2023/01/06 11:43:28;;;;;;;;;7.00;6.00;;;;;5.29;72.63;98939.75;4917476;28;103327;-69
2023/01/06 11:45:59;;;;;;;;;9.00;7.25;;;;;5.33;73.21;98935.75;4922457;28;102362;-69
2023/01/06 11:48:35;;;;;;;;;8.25;7.75;;;;;5.36;71.77;98935.44;4911282;28;102219;-70
2023/01/06 11:51:05;;;;;;;;;10.50;8.00;;;;;5.45;72.69;98932.81;4915556;28;102555;-69
2023/01/06 11:53:33;;;;;;;;;9.50;7.50;;;;;5.49;72.98;98918.06;4899526;28;104026;-69
2023/01/06 11:56:19;;;;;;;;;5.50;5.50;;;;;5.63;72.88;98909.41;4879583;28;102308;-69
2023/01/06 11:58:55;;;;;;;;;2.75;1.50;;;;;5.80;72.40;98905.78;4887944;28;102217;-69
2023/01/06 12:01:40;;;;;;;;;4.25;4.25;;;;;5.90;72.51;98903.00;4898365;28;102183;-72
2023/01/06 12:04:23;;;;;;;;;3.00;3.00;;;;;5.94;72.20;98891.78;4925804;28;104035;-71